createdAt,value
2023-05-14T00:00:09.122Z,9.38
2023-05-14T00:05:11.260Z,9.33
2023-05-14T00:10:13.060Z,9.30
2023-05-14T00:15:14.792Z,9.27
2023-05-14T00:20:16.469Z,9.18
2023-05-14T00:25:18.144Z,9.10
2023-05-14T00:30:20.275Z,9.07
2023-05-14T00:35:22.167Z,9.02
2023-05-14T00:40:27.065Z,8.97
2023-05-14T00:45:29.235Z,8.93
2023-05-14T00:50:30.907Z,8.88
2023-05-14T00:55:32.664Z,8.78
2023-05-14T01:00:34.720Z,8.66
2023-05-14T01:05:43.648Z,8.60
2023-05-14T01:10:52.415Z,8.58
2023-05-14T01:15:57.678Z,8.57
2023-05-14T01:20:59.376Z,8.55
2023-05-14T01:26:01.061Z,8.48
2023-05-14T01:31:23.393Z,8.47
2023-05-14T01:36:25.502Z,8.41
2023-05-14T01:41:29.564Z,8.37
2023-05-14T01:46:33.133Z,8.38
2023-05-14T01:51:35.460Z,8.37
2023-05-14T01:56:37.720Z,8.35
2023-05-14T02:01:39.626Z,8.37
2023-05-14T02:06:41.362Z,8.38
2023-05-14T02:11:43.056Z,8.40
2023-05-14T02:16:44.717Z,8.39
2023-05-14T02:21:46.696Z,8.35
2023-05-14T02:26:48.506Z,8.24
2023-05-14T02:31:50.436Z,8.13
2023-05-14T02:36:52.375Z,8.06
2023-05-14T02:41:54.083Z,7.99
2023-05-14T02:46:55.828Z,7.96
2023-05-14T02:51:57.688Z,7.92
2023-05-14T02:56:59.363Z,7.77
2023-05-14T03:02:01.075Z,7.61
2023-05-14T03:07:03.514Z,7.48
2023-05-14T03:12:07.030Z,7.37
2023-05-14T03:17:09.006Z,7.33
2023-05-14T03:22:10.901Z,7.36
2023-05-14T03:27:12.577Z,7.49
2023-05-14T03:32:15.002Z,7.52
2023-05-14T03:37:16.671Z,7.86
2023-05-14T03:42:18.406Z,8.21
2023-05-14T03:47:20.084Z,8.79
2023-05-14T03:52:21.819Z,9.55
2023-05-14T03:57:23.611Z,9.87
2023-05-14T04:07:12.539Z,10.27
2023-05-14T04:12:14.368Z,10.20
2023-05-14T04:17:16.254Z,10.08
2023-05-14T04:22:17.987Z,10.03
2023-05-14T04:27:21.367Z,10.98
2023-05-14T04:32:23.340Z,12.42
2023-05-14T04:37:26.142Z,13.92
2023-05-14T04:42:27.918Z,15.13
2023-05-14T04:47:29.758Z,16.08
2023-05-14T04:52:31.547Z,17.38
2023-05-14T04:57:33.274Z,18.64
2023-05-14T05:02:35.213Z,19.76
2023-05-14T05:07:36.973Z,20.73
2023-05-14T05:12:38.917Z,21.74
2023-05-14T05:17:40.734Z,22.19
2023-05-14T05:22:42.402Z,21.32
2023-05-14T05:27:44.167Z,19.82
2023-05-14T05:32:46.249Z,18.47
2023-05-14T05:37:48.132Z,17.53
2023-05-14T05:42:49.839Z,17.05
2023-05-14T05:47:51.746Z,17.25
2023-05-14T05:52:53.427Z,18.47
2023-05-14T05:57:55.589Z,20.25
2023-05-14T06:02:57.294Z,21.95
2023-05-14T06:07:59.441Z,22.99
2023-05-14T06:13:01.187Z,23.55
2023-05-14T06:18:03.101Z,23.34
2023-05-14T06:23:04.880Z,23.39
2023-05-14T06:28:06.589Z,23.61
2023-05-14T06:33:08.312Z,22.97
2023-05-14T06:38:09.955Z,21.24
2023-05-14T06:43:11.712Z,20.10
2023-05-14T06:48:13.529Z,19.42
2023-05-14T06:53:15.657Z,19.17
2023-05-14T06:58:17.338Z,19.29
2023-05-14T07:03:19.474Z,19.34
2023-05-14T07:08:21.092Z,19.35
2023-05-14T07:13:23.315Z,19.46
2023-05-14T07:18:25.152Z,19.91
2023-05-14T07:23:26.896Z,20.48
2023-05-14T07:28:28.625Z,20.77
2023-05-14T07:33:30.374Z,21.02
2023-05-14T07:38:32.715Z,21.26
2023-05-14T07:43:34.813Z,21.68
2023-05-14T07:48:36.638Z,21.92
2023-05-14T07:53:38.410Z,21.92
2023-05-14T07:58:41.442Z,22.10
2023-05-14T08:03:43.538Z,22.46
2023-05-14T08:08:45.320Z,22.97
2023-05-14T08:13:46.969Z,23.24
2023-05-14T08:18:49.255Z,23.38
2023-05-14T08:23:50.933Z,22.77
2023-05-14T08:28:54.462Z,22.29
2023-05-14T08:33:56.416Z,22.22
2023-05-14T08:38:58.259Z,22.39
2023-05-14T08:44:14.074Z,22.94
2023-05-14T08:49:40.732Z,23.54
2023-05-14T08:54:42.699Z,23.73
2023-05-14T08:59:44.586Z,23.70
2023-05-14T09:04:47.508Z,23.43
2023-05-14T09:09:49.463Z,23.41
2023-05-14T09:14:51.373Z,23.70
2023-05-14T09:19:53.648Z,24.24
2023-05-14T09:25:26.494Z,24.31
2023-05-14T09:30:28.315Z,24.77
2023-05-14T09:35:30.010Z,24.62
2023-05-14T09:40:31.794Z,24.99
2023-05-14T09:45:35.113Z,25.57
2023-05-14T09:50:46.642Z,25.73
2023-05-14T09:55:49.350Z,25.69
2023-05-14T10:00:51.924Z,25.41
2023-05-14T10:05:56.126Z,25.81
2023-05-14T10:10:59.457Z,26.16
2023-05-14T10:16:44.645Z,25.98
2023-05-14T10:21:53.140Z,26.47
2023-05-14T10:26:55.108Z,27.00
2023-05-14T10:31:56.876Z,27.23
2023-05-14T10:37:03.036Z,27.00
2023-05-14T10:42:05.126Z,27.00
2023-05-14T10:47:07.928Z,27.14
2023-05-14T10:52:10.543Z,26.92
2023-05-14T10:57:12.665Z,26.84
2023-05-14T11:02:21.723Z,26.59
2023-05-14T11:07:43.643Z,26.80
2023-05-14T11:12:47.265Z,26.82
2023-05-14T11:17:50.748Z,26.77
2023-05-14T11:22:52.765Z,26.79
2023-05-14T11:27:58.393Z,26.98
2023-05-14T11:33:02.090Z,27.20
2023-05-14T11:38:03.947Z,27.31
2023-05-14T11:43:05.767Z,26.98
2023-05-14T11:48:15.054Z,26.72
2023-05-14T11:53:30.896Z,26.51
2023-05-14T11:58:33.885Z,26.15
2023-05-14T12:03:36.003Z,26.16
2023-05-14T12:08:37.903Z,26.09
2023-05-14T12:13:39.652Z,25.93
2023-05-14T12:18:42.585Z,25.86
2023-05-14T12:23:44.445Z,25.32
2023-05-14T12:28:47.760Z,25.46
2023-05-14T12:33:49.406Z,25.60
2023-05-14T12:38:56.897Z,25.34
2023-05-14T12:44:00.007Z,25.37
2023-05-14T12:49:01.699Z,25.35
2023-05-14T12:54:03.638Z,25.32
2023-05-14T12:59:05.303Z,25.09
2023-05-14T13:04:07.935Z,25.02
2023-05-14T13:09:09.692Z,25.38
2023-05-14T13:14:11.344Z,25.62
2023-05-14T13:19:12.990Z,25.50
2023-05-14T13:24:15.312Z,25.14
2023-05-14T13:29:16.957Z,24.63
2023-05-14T13:34:18.889Z,24.33
2023-05-14T13:39:22.760Z,23.91
2023-05-14T13:44:24.630Z,23.69
2023-05-14T13:49:26.647Z,23.71
2023-05-14T13:54:28.316Z,23.75
2023-05-14T13:59:30.093Z,23.66
2023-05-14T14:04:32.102Z,23.41
2023-05-14T14:09:35.846Z,23.11
2023-05-14T14:14:37.528Z,23.02
2023-05-14T14:19:39.307Z,23.05
2023-05-14T14:24:41.040Z,22.76
2023-05-14T14:29:42.736Z,22.46
2023-05-14T14:34:44.458Z,22.23
2023-05-14T14:39:46.165Z,21.99
2023-05-14T14:44:47.819Z,21.69
2023-05-14T14:49:49.619Z,21.53
2023-05-14T14:54:51.773Z,21.52
2023-05-14T14:59:53.487Z,21.35
2023-05-14T15:04:55.851Z,21.12
2023-05-14T15:09:57.480Z,20.89
2023-05-14T15:14:59.143Z,20.79
2023-05-14T15:20:21.018Z,20.99
2023-05-14T15:25:24.287Z,21.26
2023-05-14T15:30:26.203Z,21.30
2023-05-14T15:35:27.914Z,21.27
2023-05-14T15:40:29.773Z,21.24
2023-05-14T15:45:31.550Z,21.13
2023-05-14T15:50:33.402Z,20.85
2023-05-14T15:55:35.602Z,20.46
2023-05-14T16:00:37.356Z,20.15
2023-05-14T16:05:39.159Z,19.88
2023-05-14T16:10:40.852Z,19.73
2023-05-14T16:15:43.014Z,19.67
2023-05-14T16:20:44.765Z,19.62
2023-05-14T16:25:46.635Z,19.54
2023-05-14T16:30:48.578Z,19.45
2023-05-14T16:35:51.388Z,19.38
2023-05-14T16:40:53.006Z,19.29
2023-05-14T16:45:55.877Z,19.17
2023-05-14T16:50:59.462Z,18.98
2023-05-14T16:56:01.749Z,18.73
2023-05-14T17:01:03.522Z,18.43
2023-05-14T17:06:05.645Z,18.18
2023-05-14T17:11:07.393Z,17.97
2023-05-14T17:16:09.100Z,17.80
2023-05-14T17:21:11.001Z,17.65
2023-05-14T17:26:12.789Z,17.48
2023-05-14T17:31:14.570Z,17.45
2023-05-14T17:36:16.695Z,17.66
2023-05-14T17:41:18.379Z,17.77
2023-05-14T17:46:21.314Z,17.79
2023-05-14T17:51:22.956Z,17.72
2023-05-14T17:56:24.746Z,17.33
2023-05-14T18:01:26.569Z,17.06
2023-05-14T18:06:28.500Z,16.82
2023-05-14T18:11:33.986Z,16.64
2023-05-14T18:16:37.097Z,16.50
2023-05-14T18:21:38.824Z,16.39
2023-05-14T18:26:40.740Z,16.27
2023-05-14T18:31:42.373Z,16.19
2023-05-14T18:36:44.110Z,16.15
2023-05-14T18:41:45.851Z,16.14
2023-05-14T18:46:47.635Z,16.10
2023-05-14T18:51:49.455Z,16.09
2023-05-14T18:56:51.286Z,16.00
2023-05-14T19:01:53.382Z,15.83
2023-05-14T19:06:55.127Z,15.73
2023-05-14T19:11:56.799Z,15.64
2023-05-14T19:16:58.977Z,15.42
2023-05-14T19:22:00.724Z,15.27
2023-05-14T19:27:02.549Z,15.26
2023-05-14T19:32:05.173Z,15.14
2023-05-14T19:37:07.239Z,15.06
2023-05-14T19:42:09.028Z,14.97
2023-05-14T19:47:10.907Z,14.91
2023-05-14T19:52:12.654Z,14.97
2023-05-14T19:57:14.350Z,14.98
2023-05-14T20:02:18.438Z,15.06
2023-05-14T20:07:20.411Z,14.99
2023-05-14T20:12:22.037Z,14.88
2023-05-14T20:17:24.889Z,14.80
2023-05-14T20:22:26.716Z,14.76
2023-05-14T20:27:28.451Z,14.72
2023-05-14T20:32:30.232Z,14.65
2023-05-14T20:37:32.574Z,14.57
2023-05-14T20:42:35.098Z,14.50
2023-05-14T20:47:36.932Z,14.47
2023-05-14T20:52:38.631Z,14.41
2023-05-14T20:57:40.887Z,14.37
2023-05-14T21:02:45.483Z,14.31
2023-05-14T21:07:48.291Z,14.25
2023-05-14T21:12:54.893Z,14.16
2023-05-14T21:17:56.597Z,14.09
2023-05-14T21:22:58.333Z,14.05
2023-05-14T21:28:00.144Z,13.99
2023-05-14T21:33:03.190Z,13.94
2023-05-14T21:38:04.929Z,13.89
2023-05-14T21:43:07.149Z,13.85
2023-05-14T21:48:10.765Z,13.87
2023-05-14T21:53:13.948Z,13.80
2023-05-14T21:58:15.778Z,13.79
2023-05-14T22:03:17.533Z,13.84
2023-05-14T22:08:19.245Z,13.82
2023-05-14T22:13:20.942Z,13.72
2023-05-14T22:18:24.214Z,13.71
2023-05-14T22:23:25.871Z,13.69
2023-05-14T22:28:27.573Z,13.72
2023-05-14T22:33:29.300Z,13.79
2023-05-14T22:38:30.997Z,13.83
2023-05-14T22:43:32.723Z,13.85
2023-05-14T22:48:34.417Z,13.91
2023-05-14T22:53:36.185Z,13.86
2023-05-14T22:58:37.897Z,13.84
2023-05-14T23:03:39.691Z,13.76
2023-05-14T23:08:42.940Z,13.68
2023-05-14T23:13:50.712Z,13.62
2023-05-14T23:18:52.780Z,13.60
2023-05-14T23:24:02.398Z,13.61
2023-05-14T23:29:04.075Z,13.59
2023-05-14T23:34:06.019Z,13.62
2023-05-14T23:39:08.679Z,13.64
2023-05-14T23:44:11.120Z,13.67
2023-05-14T23:49:14.233Z,13.71
2023-05-14T23:54:17.290Z,13.74
2023-05-14T23:59:19.018Z,13.75
